Hovedside
METAR-TAF:

METAR-TAF

Lufthavner :

Houari Boumedienne lufthavn

Alger, Algerie

breddegrad: 36-43N, lengdegrad: 003-15E, høyde over havet: 25 m

Gjeldene værobservasjon

Denne rapporten ble laget for 21 minutter siden, klokken 17:30 UTC
Vind 17 kt fra Nordøst
Temperatur 27°C
Luftfuktighet 48%
Trykk 1015 hPa
Sikt 10 km eller mer
Få skyer i en høyde av 2600 ft

METAR: DAAG 231730Z 05017KT 9999 FEW026 27/15 Q1015

Tid: 18:51 (17:51 UTC)

Varsel

Denne rapporten ble laget for 6 timer og 51 minutter siden, klokken 11:00 UTC
Varsel gyldig fra 23. klokken 12 UTC til 24. klokken 12 UTC
Vind 8 kt fra Sør
Sikt: 4000 m
ingen skyer under 1500 m og ingen bygeskyer
dis
Blir
fra 24. klokken 07 UTC til 24. klokken 10 UTC
Vind 12 kt fra Nordøst
Blir
mellom og UTC

TAF: DAAG 231100Z 2312/2412 04012KT CAVOK 2317/2320 18008KT 2400/2306 4000 BR BECMG 2407/2410 04012KT BECMG

Værobservasjoner og værvarsel for over 4000 flyplasser (METAR- og TAF-rapporter).

Tilgjengelige stasjoner er representert av de røde og gule prikkene på kartet.

Hold musepekeren over prikken for å se navnet på stasjonen.

Klikk så for å se værobservasjoner og -varsler.

For å forandre kartet kan du klikke på den grønne knappen med svart kryss for å zoome inn, på den grønne knappen med strek for å zoome ut, eller på de grønne pilene for å se tilstøtende kart.


METAR-TAF: